createdAt,value
2022-09-23T00:01:19.747Z,15.20
2022-09-23T00:03:47.440Z,15.20
2022-09-23T00:06:20.300Z,15.20
2022-09-23T00:08:49.566Z,15.30
2022-09-23T00:11:19.622Z,15.30
2022-09-23T00:13:49.009Z,15.30
2022-09-23T00:16:19.117Z,15.20
2022-09-23T00:18:46.343Z,15.30
2022-09-23T00:21:14.844Z,15.30
2022-09-23T00:23:43.319Z,15.30
2022-09-23T00:26:13.418Z,15.40
2022-09-23T00:28:46.528Z,15.40
2022-09-23T00:31:20.424Z,15.40
2022-09-23T00:33:47.450Z,15.50
2022-09-23T00:36:16.792Z,15.40
2022-09-23T00:38:44.694Z,15.40
2022-09-23T00:41:12.620Z,15.40
2022-09-23T00:43:49.983Z,15.40
2022-09-23T00:46:32.658Z,15.40
2022-09-23T00:49:11.634Z,15.40
2022-09-23T00:51:52.224Z,15.40
2022-09-23T00:54:19.405Z,15.30
2022-09-23T00:56:46.471Z,15.20
2022-09-23T00:59:13.969Z,15.20
2022-09-23T01:01:42.476Z,15.20
2022-09-23T01:04:10.107Z,15.20
2022-09-23T01:06:37.221Z,15.20
2022-09-23T01:09:04.470Z,15.20
2022-09-23T01:11:45.773Z,15.20
2022-09-23T01:14:32.354Z,15.20
2022-09-23T01:17:09.275Z,15.20
2022-09-23T01:20:03.595Z,15.20
2022-09-23T01:22:54.039Z,15.20
2022-09-23T01:25:48.590Z,15.20
2022-09-23T01:29:03.090Z,15.10
2022-09-23T01:31:44.889Z,15.10
2022-09-23T01:34:48.463Z,15.10
2022-09-23T01:37:55.653Z,15.10
2022-09-23T01:40:48.996Z,15.10
2022-09-23T01:44:01.008Z,15.00
2022-09-23T01:46:38.382Z,15.00
2022-09-23T01:49:24.604Z,15.00
2022-09-23T01:51:58.354Z,15.00
2022-09-23T01:54:32.625Z,15.00
2022-09-23T01:57:08.027Z,15.00
2022-09-23T02:00:00.553Z,15.00
2022-09-23T02:02:31.691Z,15.00
2022-09-23T02:05:14.903Z,15.00
2022-09-23T02:07:44.403Z,15.00
2022-09-23T02:10:31.247Z,15.00
2022-09-23T02:13:15.680Z,15.00
2022-09-23T02:15:50.714Z,15.00
2022-09-23T02:18:24.738Z,14.90
2022-09-23T02:20:56.188Z,14.90
2022-09-23T02:23:50.623Z,14.90
2022-09-23T02:26:20.400Z,14.90
2022-09-23T02:29:18.764Z,14.90
2022-09-23T02:32:08.953Z,14.90
2022-09-23T02:34:47.944Z,14.90
2022-09-23T02:37:33.511Z,14.90
2022-09-23T02:40:23.646Z,14.90
2022-09-23T02:43:12.513Z,14.90
2022-09-23T02:45:39.673Z,15.00
2022-09-23T02:48:18.834Z,14.90
2022-09-23T02:50:47.727Z,14.90
2022-09-23T02:53:16.260Z,14.80
2022-09-23T02:55:43.456Z,14.80
2022-09-23T02:58:13.844Z,14.80
2022-09-23T03:01:18.966Z,14.70
2022-09-23T03:04:31.800Z,14.70
2022-09-23T03:07:02.275Z,14.70
2022-09-23T03:09:44.018Z,14.60
2022-09-23T03:12:34.401Z,14.60
2022-09-23T03:15:27.187Z,14.50
2022-09-23T03:18:12.613Z,14.50
2022-09-23T03:20:46.407Z,14.50
2022-09-23T03:23:18.931Z,14.50
2022-09-23T03:25:49.519Z,14.40
2022-09-23T03:28:22.200Z,14.40
2022-09-23T03:30:54.400Z,14.40
2022-09-23T03:33:28.531Z,14.30
2022-09-23T03:36:24.006Z,14.30
2022-09-23T03:38:54.962Z,14.30
2022-09-23T03:41:36.327Z,14.30
2022-09-23T03:44:04.017Z,14.30
2022-09-23T03:46:31.161Z,14.30
2022-09-23T03:49:07.187Z,14.30
2022-09-23T03:51:34.061Z,14.20
2022-09-23T03:54:00.975Z,14.30
2022-09-23T03:56:27.949Z,14.30
2022-09-23T03:58:54.967Z,14.30
2022-09-23T04:01:21.976Z,14.30
2022-09-23T04:03:49.093Z,14.30
2022-09-23T04:06:16.035Z,14.30
2022-09-23T04:08:43.142Z,14.30
2022-09-23T04:11:10.651Z,14.30
2022-09-23T04:13:37.765Z,14.20
2022-09-23T04:16:04.856Z,14.30
2022-09-23T04:18:31.871Z,14.20
2022-09-23T04:21:02.573Z,14.20
2022-09-23T04:23:29.857Z,14.20
2022-09-23T04:25:57.287Z,14.20
2022-09-23T04:28:24.308Z,14.30
2022-09-23T04:30:51.357Z,14.30
2022-09-23T04:33:18.329Z,14.30
2022-09-23T04:35:49.670Z,14.40
2022-09-23T04:38:16.687Z,14.40
2022-09-23T04:40:44.061Z,14.40
2022-09-23T04:43:13.580Z,14.40
2022-09-23T04:45:40.972Z,14.40
2022-09-23T04:48:09.787Z,14.40
2022-09-23T04:50:37.713Z,14.40
2022-09-23T04:53:05.354Z,14.40
2022-09-23T04:55:32.605Z,14.40
2022-09-23T04:57:59.847Z,14.40
2022-09-23T05:00:28.777Z,14.50
2022-09-23T05:02:55.793Z,14.50
2022-09-23T05:05:24.255Z,14.50
2022-09-23T05:07:51.924Z,14.50
2022-09-23T05:10:18.855Z,14.50
2022-09-23T05:12:45.805Z,14.60
2022-09-23T05:15:16.124Z,14.60
2022-09-23T05:17:43.453Z,14.60
2022-09-23T05:20:11.257Z,14.60
2022-09-23T05:22:38.212Z,14.50
2022-09-23T05:25:05.604Z,14.60
2022-09-23T05:27:32.494Z,14.60
2022-09-23T05:29:59.738Z,14.70
2022-09-23T05:32:26.717Z,14.80
2022-09-23T05:34:55.705Z,14.80
2022-09-23T05:37:23.270Z,14.90
2022-09-23T05:39:50.140Z,14.90
2022-09-23T05:42:21.268Z,15.00
2022-09-23T05:44:48.195Z,15.10
2022-09-23T05:47:15.250Z,15.10
2022-09-23T05:49:58.476Z,15.10
2022-09-23T05:52:26.412Z,15.20
2022-09-23T05:54:53.741Z,15.20
2022-09-23T05:57:21.447Z,15.20
2022-09-23T05:59:48.343Z,15.30
2022-09-23T06:02:15.394Z,15.30
2022-09-23T06:04:43.033Z,15.30
2022-09-23T06:07:10.387Z,15.40
2022-09-23T06:09:37.371Z,15.40
2022-09-23T06:12:05.167Z,15.40
2022-09-23T06:14:32.223Z,15.40
2022-09-23T06:16:59.220Z,15.40
2022-09-23T06:19:26.198Z,15.40
2022-09-23T06:21:53.161Z,15.40
2022-09-23T06:24:22.302Z,15.50
2022-09-23T06:26:51.744Z,15.50
2022-09-23T06:29:18.627Z,15.50
2022-09-23T06:31:45.536Z,15.50
2022-09-23T06:34:14.580Z,15.50
2022-09-23T06:36:46.438Z,15.50
2022-09-23T06:39:15.514Z,15.50
2022-09-23T06:41:43.296Z,15.50
2022-09-23T06:44:13.586Z,15.50
2022-09-23T06:46:40.615Z,15.50
2022-09-23T06:49:07.613Z,15.50
2022-09-23T06:51:34.632Z,15.50
2022-09-23T06:54:01.771Z,15.50
2022-09-23T06:56:30.731Z,15.50
2022-09-23T06:58:59.378Z,15.50
2022-09-23T07:01:26.429Z,15.50
2022-09-23T07:03:54.185Z,15.60
2022-09-23T07:06:21.165Z,15.60
2022-09-23T07:08:48.477Z,15.60
2022-09-23T07:11:16.262Z,15.60
2022-09-23T07:13:43.463Z,15.70
2022-09-23T07:16:11.599Z,15.60
2022-09-23T07:18:38.987Z,15.70
2022-09-23T07:21:17.360Z,15.70
2022-09-23T07:23:46.280Z,15.70
2022-09-23T07:26:16.612Z,15.70
2022-09-23T07:28:43.612Z,15.70
2022-09-23T07:31:13.569Z,15.80
2022-09-23T07:33:44.095Z,15.80
2022-09-23T07:36:14.239Z,15.70
2022-09-23T07:38:45.184Z,15.80
2022-09-23T07:41:15.596Z,15.80
2022-09-23T07:43:43.413Z,15.80
2022-09-23T07:46:16.414Z,15.80
2022-09-23T07:48:44.705Z,15.90
2022-09-23T07:51:21.092Z,15.90
2022-09-23T07:53:49.374Z,15.90
2022-09-23T07:56:19.144Z,15.90
2022-09-23T07:58:59.847Z,15.90
2022-09-23T08:01:29.528Z,15.90
2022-09-23T08:04:03.948Z,15.90
2022-09-23T08:06:30.945Z,15.90
2022-09-23T08:08:59.016Z,16.00
2022-09-23T08:11:26.764Z,16.00
2022-09-23T08:13:56.616Z,16.00
2022-09-23T08:16:23.561Z,16.00
2022-09-23T08:18:50.698Z,16.00
2022-09-23T08:21:21.768Z,16.10
2022-09-23T08:23:49.327Z,16.10
2022-09-23T08:26:21.533Z,16.10
2022-09-23T08:28:50.404Z,16.10
2022-09-23T08:31:23.939Z,16.10
2022-09-23T08:33:55.896Z,16.10
2022-09-23T08:36:23.754Z,16.10
2022-09-23T08:38:50.981Z,16.10
2022-09-23T08:41:40.952Z,16.20
2022-09-23T08:44:17.774Z,16.20
2022-09-23T08:47:00.127Z,16.20
2022-09-23T08:49:35.554Z,16.20
2022-09-23T08:52:14.489Z,16.20
2022-09-23T08:54:41.290Z,16.20
2022-09-23T08:57:24.248Z,16.30
2022-09-23T08:59:51.320Z,16.30
2022-09-23T09:02:19.283Z,16.30
2022-09-23T09:05:03.370Z,16.30
2022-09-23T09:07:37.330Z,16.30
2022-09-23T09:10:20.817Z,16.30
2022-09-23T09:13:03.277Z,16.40
2022-09-23T09:15:30.342Z,16.30
2022-09-23T09:18:13.920Z,16.40
2022-09-23T09:20:59.528Z,16.40
2022-09-23T09:23:52.342Z,16.40
2022-09-23T09:26:25.228Z,16.40
2022-09-23T09:29:11.386Z,16.40
2022-09-23T09:31:50.218Z,16.40
2022-09-23T09:34:41.380Z,16.40
2022-09-23T09:37:36.798Z,16.50
2022-09-23T09:40:04.154Z,16.50
2022-09-23T09:42:40.322Z,16.50
2022-09-23T09:45:13.235Z,16.50
2022-09-23T09:48:10.805Z,16.50
2022-09-23T09:50:49.315Z,16.50
2022-09-23T09:53:28.196Z,16.50
2022-09-23T09:56:06.115Z,16.50
2022-09-23T09:58:49.545Z,16.50
2022-09-23T10:01:23.860Z,16.60
2022-09-23T10:03:56.958Z,16.60
2022-09-23T10:06:28.950Z,16.60
2022-09-23T10:09:02.359Z,16.60
2022-09-23T10:11:30.202Z,16.60
2022-09-23T10:14:02.933Z,16.70
2022-09-23T10:16:31.896Z,16.70
2022-09-23T10:19:01.298Z,16.70
2022-09-23T10:21:35.549Z,16.70
2022-09-23T10:24:05.649Z,16.70
2022-09-23T10:26:42.583Z,16.80
2022-09-23T10:29:29.179Z,16.80
2022-09-23T10:32:25.792Z,16.80
2022-09-23T10:34:57.020Z,16.80
2022-09-23T10:37:35.931Z,16.80
2022-09-23T10:40:37.490Z,16.80
2022-09-23T10:43:44.991Z,16.80
2022-09-23T10:46:38.594Z,16.90
2022-09-23T10:49:12.316Z,16.90
2022-09-23T10:51:53.495Z,16.90
2022-09-23T10:54:42.070Z,16.90
2022-09-23T10:57:43.067Z,16.90
2022-09-23T11:00:23.065Z,16.90
2022-09-23T11:03:12.474Z,16.90
2022-09-23T11:06:08.554Z,16.90
2022-09-23T11:09:06.341Z,16.90
2022-09-23T11:12:02.053Z,17.00
2022-09-23T11:14:41.292Z,17.00
2022-09-23T11:17:17.653Z,17.00
2022-09-23T11:20:35.981Z,17.00
2022-09-23T11:23:28.754Z,17.00
2022-09-23T11:26:18.029Z,17.00
2022-09-23T11:29:03.668Z,17.10
2022-09-23T11:31:42.657Z,17.00
2022-09-23T11:34:30.263Z,17.10
2022-09-23T11:37:21.943Z,17.10
2022-09-23T11:40:01.414Z,17.10
2022-09-23T11:42:36.611Z,17.10
2022-09-23T11:45:14.989Z,17.10
2022-09-23T11:48:16.915Z,17.10
2022-09-23T11:50:56.095Z,17.20
2022-09-23T11:53:34.968Z,17.10
2022-09-23T11:56:32.638Z,17.20
2022-09-23T11:59:42.648Z,17.20
2022-09-23T12:02:36.526Z,17.20
2022-09-23T12:05:10.227Z,17.30
2022-09-23T12:07:54.468Z,17.30
2022-09-23T12:10:23.619Z,17.30
2022-09-23T12:13:05.124Z,17.30
2022-09-23T12:16:14.691Z,17.30
2022-09-23T12:18:47.680Z,17.40
2022-09-23T12:21:53.309Z,17.40
2022-09-23T12:24:23.054Z,17.40
2022-09-23T12:26:56.172Z,17.40
2022-09-23T12:29:26.702Z,17.40
2022-09-23T12:31:53.986Z,17.40
2022-09-23T12:34:49.232Z,17.40
2022-09-23T12:37:30.264Z,17.40
2022-09-23T12:40:01.891Z,17.50
2022-09-23T12:42:31.315Z,17.50
2022-09-23T12:45:27.944Z,17.40
2022-09-23T12:47:55.010Z,17.50
2022-09-23T12:50:51.515Z,17.50
2022-09-23T12:53:34.103Z,17.50
2022-09-23T12:56:13.990Z,17.50
2022-09-23T12:58:44.049Z,17.60
2022-09-23T13:01:19.122Z,17.60
2022-09-23T13:04:10.321Z,17.50
2022-09-23T13:06:47.270Z,17.50
2022-09-23T13:09:20.383Z,17.60
2022-09-23T13:11:48.271Z,17.60
2022-09-23T13:14:25.257Z,17.60
2022-09-23T13:16:57.198Z,17.60
2022-09-23T13:19:27.032Z,17.60
2022-09-23T13:21:53.909Z,17.70
2022-09-23T13:24:24.976Z,17.70
2022-09-23T13:27:11.283Z,17.70
2022-09-23T13:30:00.941Z,17.70
2022-09-23T13:32:34.586Z,17.70
2022-09-23T13:35:15.818Z,17.70
2022-09-23T13:37:45.427Z,17.70
2022-09-23T13:40:25.891Z,17.80
2022-09-23T13:43:02.566Z,17.80
2022-09-23T13:45:34.139Z,17.80
2022-09-23T13:48:07.509Z,17.80
2022-09-23T13:50:38.510Z,17.80
2022-09-23T13:53:13.345Z,17.80
2022-09-23T13:55:41.364Z,17.80
2022-09-23T13:58:21.509Z,17.80
2022-09-23T14:00:49.826Z,17.80
2022-09-23T14:03:38.433Z,17.80
2022-09-23T14:06:16.805Z,17.90
2022-09-23T14:08:49.861Z,17.90
2022-09-23T14:11:30.615Z,17.90
2022-09-23T14:14:00.314Z,18.00
2022-09-23T14:16:28.160Z,18.00
2022-09-23T14:19:00.042Z,18.10
2022-09-23T14:21:39.888Z,18.10
2022-09-23T14:24:14.973Z,18.10
2022-09-23T14:31:08.064Z,18.10
2022-09-23T14:33:40.831Z,18.10
2022-09-23T14:36:35.817Z,18.10
2022-09-23T14:39:05.340Z,18.10
2022-09-23T14:41:38.259Z,18.10
2022-09-23T14:44:07.151Z,18.10
2022-09-23T14:46:37.501Z,18.10
2022-09-23T14:49:16.124Z,18.10
2022-09-23T14:51:54.148Z,18.10
2022-09-23T14:54:45.300Z,18.10
2022-09-23T14:57:26.399Z,18.10
2022-09-23T15:00:03.783Z,18.10
2022-09-23T15:02:33.023Z,18.10
2022-09-23T15:05:16.142Z,18.10
2022-09-23T15:07:51.562Z,18.10
2022-09-23T15:10:27.016Z,18.10
2022-09-23T15:12:56.524Z,18.10
2022-09-23T15:15:30.511Z,18.10
2022-09-23T15:18:04.975Z,18.10
2022-09-23T15:20:32.342Z,18.10
2022-09-23T15:22:59.402Z,18.10
2022-09-23T15:25:40.584Z,18.10
2022-09-23T15:28:10.589Z,18.10
2022-09-23T15:31:43.862Z,18.10
2022-09-23T15:38:43.395Z,18.10
2022-09-23T15:46:17.005Z,18.10
2022-09-23T15:53:13.228Z,18.10
2022-09-23T15:55:40.137Z,18.00
2022-09-23T15:58:07.210Z,18.00
2022-09-23T16:00:37.340Z,18.00
2022-09-23T16:03:05.301Z,18.10
2022-09-23T16:09:59.279Z,18.10
2022-09-23T16:13:42.550Z,18.10
2022-09-23T16:16:49.689Z,18.10
2022-09-23T16:23:51.433Z,18.10
2022-09-23T16:26:21.649Z,18.10
2022-09-23T16:28:50.519Z,18.10
2022-09-23T16:31:18.145Z,18.10
2022-09-23T16:33:46.496Z,18.10
2022-09-23T16:36:28.671Z,18.10
2022-09-23T16:38:56.100Z,18.10
2022-09-23T16:41:24.573Z,18.10
2022-09-23T16:43:52.921Z,18.10
2022-09-23T16:46:20.703Z,18.10
2022-09-23T16:48:52.292Z,18.10
2022-09-23T16:51:22.521Z,18.10
2022-09-23T17:01:58.577Z,18.10
2022-09-23T17:04:27.518Z,18.10
2022-09-23T17:06:56.015Z,18.10
2022-09-23T17:09:28.571Z,18.10
2022-09-23T17:12:11.488Z,18.10
2022-09-23T17:14:38.438Z,18.10
2022-09-23T17:17:06.654Z,18.10
2022-09-23T17:19:34.521Z,18.10
2022-09-23T17:22:01.452Z,18.10
2022-09-23T17:24:28.398Z,18.10
2022-09-23T17:26:55.516Z,18.10
2022-09-23T17:29:26.830Z,18.10
2022-09-23T17:31:55.853Z,18.10
2022-09-23T17:34:23.990Z,18.10
2022-09-23T17:36:50.972Z,18.10
2022-09-23T17:39:18.186Z,18.10
2022-09-23T17:41:45.518Z,18.20
2022-09-23T17:44:12.738Z,18.20
2022-09-23T17:51:06.788Z,18.20
2022-09-23T17:53:37.118Z,18.20
2022-09-23T17:56:22.538Z,18.10
2022-09-23T17:58:50.330Z,18.10
2022-09-23T18:01:23.530Z,18.10
2022-09-23T18:04:01.855Z,18.10
2022-09-23T18:06:33.639Z,18.10
2022-09-23T18:09:04.408Z,18.10
2022-09-23T18:11:39.160Z,18.10
2022-09-23T18:14:11.354Z,18.10
2022-09-23T18:16:40.425Z,18.10
2022-09-23T18:19:12.436Z,18.10
2022-09-23T18:21:42.312Z,18.10
2022-09-23T18:27:00.235Z,18.10
2022-09-23T18:29:27.474Z,18.10
2022-09-23T18:31:54.613Z,18.10
2022-09-23T18:34:21.936Z,18.10
2022-09-23T18:36:48.924Z,18.10
2022-09-23T18:39:15.817Z,18.10
2022-09-23T18:41:42.874Z,18.10
2022-09-23T18:44:10.116Z,18.00
2022-09-23T18:46:37.419Z,18.10
2022-09-23T18:49:23.338Z,18.10
2022-09-23T18:51:55.852Z,18.10
2022-09-23T18:54:28.363Z,18.10
2022-09-23T18:56:55.925Z,18.10
2022-09-23T18:59:25.958Z,18.10
2022-09-23T19:01:56.615Z,18.10
2022-09-23T19:04:25.646Z,18.10
2022-09-23T19:06:57.517Z,18.10
2022-09-23T19:13:56.526Z,18.10
2022-09-23T19:16:26.877Z,18.00
2022-09-23T19:18:54.711Z,18.00
2022-09-23T19:21:22.701Z,18.10
2022-09-23T19:29:08.136Z,18.00
2022-09-23T19:36:42.655Z,18.00
2022-09-23T19:43:46.042Z,18.00
2022-09-23T19:51:02.623Z,17.90
2022-09-23T19:53:29.591Z,17.90
2022-09-23T19:55:57.109Z,17.90
2022-09-23T19:58:24.751Z,17.90
2022-09-23T20:00:51.737Z,17.90
2022-09-23T20:03:18.774Z,17.90
2022-09-23T20:05:55.035Z,17.90
2022-09-23T20:08:22.499Z,17.90
2022-09-23T20:10:49.864Z,17.90
2022-09-23T20:13:18.382Z,17.90
2022-09-23T20:15:51.122Z,17.90
2022-09-23T20:18:18.125Z,17.90
2022-09-23T20:20:45.076Z,17.90
2022-09-23T20:23:12.003Z,17.90
2022-09-23T20:25:57.206Z,17.90
2022-09-23T20:28:27.362Z,17.90
2022-09-23T20:30:58.610Z,18.00
2022-09-23T20:33:25.503Z,18.00
2022-09-23T20:35:53.496Z,17.90
2022-09-23T20:38:20.424Z,17.90
2022-09-23T20:40:55.805Z,18.00
2022-09-23T20:43:23.815Z,17.90
2022-09-23T20:45:54.358Z,17.90
2022-09-23T20:48:22.238Z,17.90
2022-09-23T20:50:52.510Z,17.90
2022-09-23T20:53:22.143Z,18.00
2022-09-23T20:55:54.325Z,18.00
2022-09-23T20:58:29.338Z,17.90
2022-09-23T21:01:02.922Z,18.00
2022-09-23T21:03:34.947Z,17.90
2022-09-23T21:06:05.867Z,18.00
2022-09-23T21:08:34.227Z,18.00
2022-09-23T21:11:05.223Z,18.00
2022-09-23T21:13:33.580Z,18.00
2022-09-23T21:16:22.640Z,17.90
2022-09-23T21:18:51.662Z,18.00
2022-09-23T21:21:19.963Z,18.00
2022-09-23T21:23:47.755Z,18.00
2022-09-23T21:26:25.864Z,18.00
2022-09-23T21:28:57.807Z,18.00
2022-09-23T21:31:35.826Z,18.00
2022-09-23T21:34:07.503Z,18.00
2022-09-23T21:36:41.421Z,18.00
2022-09-23T21:39:10.467Z,18.00
2022-09-23T21:41:38.057Z,18.00
2022-09-23T21:44:08.312Z,18.00
2022-09-23T21:46:36.197Z,18.00
2022-09-23T21:49:04.174Z,18.00
2022-09-23T21:51:40.216Z,18.00
2022-09-23T21:54:11.671Z,18.00
2022-09-23T21:56:38.616Z,18.00
2022-09-23T21:59:07.663Z,18.00
2022-09-23T22:01:41.478Z,18.00
2022-09-23T22:04:14.946Z,18.00
2022-09-23T22:06:42.154Z,18.00
2022-09-23T22:09:13.725Z,18.00
2022-09-23T22:11:59.595Z,18.00
2022-09-23T22:14:27.620Z,18.00
2022-09-23T22:16:57.589Z,18.00
2022-09-23T22:19:26.883Z,18.00
2022-09-23T22:21:55.960Z,18.00
2022-09-23T22:24:23.203Z,18.00
2022-09-23T22:26:50.303Z,18.00
2022-09-23T22:29:37.120Z,18.00
2022-09-23T22:32:28.027Z,18.00
2022-09-23T22:34:56.065Z,18.00
2022-09-23T22:37:30.323Z,17.90
2022-09-23T22:39:57.361Z,17.90
2022-09-23T22:42:24.314Z,17.90
2022-09-23T22:44:51.691Z,17.90
2022-09-23T22:47:20.052Z,17.90
2022-09-23T22:49:49.627Z,17.90
2022-09-23T22:52:21.289Z,17.90
2022-09-23T22:54:48.332Z,17.90
2022-09-23T22:57:15.427Z,17.90
2022-09-23T22:59:47.765Z,17.90
2022-09-23T23:02:19.719Z,17.90
2022-09-23T23:04:47.754Z,17.90
2022-09-23T23:07:16.248Z,17.90
2022-09-23T23:09:43.139Z,17.90
2022-09-23T23:12:10.027Z,17.90
2022-09-23T23:14:38.093Z,17.90
2022-09-23T23:17:07.581Z,17.90
2022-09-23T23:19:36.365Z,18.00
2022-09-23T23:22:06.243Z,17.90
2022-09-23T23:24:33.259Z,17.90
2022-09-23T23:27:00.131Z,17.90
2022-09-23T23:29:27.826Z,17.90
2022-09-23T23:31:55.040Z,17.90
2022-09-23T23:34:23.036Z,17.90
2022-09-23T23:36:55.151Z,17.90
2022-09-23T23:39:24.534Z,17.90
2022-09-23T23:41:56.697Z,17.90
2022-09-23T23:44:25.365Z,17.90
2022-09-23T23:46:53.615Z,17.90
2022-09-23T23:49:21.489Z,17.90
2022-09-23T23:51:48.749Z,17.90
2022-09-23T23:54:16.202Z,17.90
2022-09-23T23:56:43.639Z,17.90
2022-09-23T23:59:10.757Z,17.90
